Terminal Aerodrome Forecast
Issued by NWS Albany, NY

Current Version | Previous Version | Text Only | Print | Product List | Glossary On
Versions: 1 2 3 4 5 6 7 8 9 10 11 12 13 14 15 16 17 18 19 20 21 22 23 24 25 26 27 28
000
FTUS41 KALY 271700 RRB
TAFPOU
TAF
KPOU 271758Z 2718/2818 36012G20KT 3SM -SN OVC025
      TEMPO 2718/2719 1SM -SN VV009
     FM272000 36012G20KT 6SM -SN OVC035
     FM272200 34012G20KT P6SM VCSH OVC045
     FM280400 33010G15KT P6SM OVC050
     FM281300 33010G15KT P6SM SCT050=

USA.gov is the U.S. government's official web portal to all federal, state and local government web resources and services.